createdAt,value
2022-10-28T00:00:56.664Z,99685.88
2022-10-28T00:03:23.664Z,99695.59
2022-10-28T00:05:50.676Z,99680.13
2022-10-28T00:08:25.525Z,99678.88
2022-10-28T00:11:14.552Z,99652.31
2022-10-28T00:13:43.338Z,99678.88
2022-10-28T00:16:16.187Z,99687.97
2022-10-28T00:18:43.982Z,99682.81
2022-10-28T00:21:14.502Z,99704.50
2022-10-28T00:23:42.185Z,99677.22
2022-10-28T00:26:11.992Z,99681.34
2022-10-28T00:28:44.004Z,99695.97
2022-10-28T00:31:12.655Z,99672.63
2022-10-28T00:33:39.734Z,99673.44
2022-10-28T00:36:22.214Z,99670.53
2022-10-28T00:38:51.239Z,99670.94
2022-10-28T00:41:21.133Z,99675.88
2022-10-28T00:43:53.414Z,99684.16
2022-10-28T00:46:23.364Z,99681.25
2022-10-28T00:48:57.611Z,99681.69
2022-10-28T00:51:26.671Z,99676.53
2022-10-28T00:53:56.264Z,99672.59
2022-10-28T00:56:28.023Z,99660.63
2022-10-28T00:58:57.811Z,99692.19
2022-10-28T01:01:24.939Z,99672.84
2022-10-28T01:03:52.228Z,99675.53
2022-10-28T01:06:20.257Z,99684.19
2022-10-28T01:08:47.125Z,99693.66
2022-10-28T01:11:49.198Z,99691.16
2022-10-28T01:14:37.976Z,99693.84
2022-10-28T01:17:42.799Z,99679.81
2022-10-28T01:20:28.451Z,99679.81
2022-10-28T01:23:01.331Z,99679.66
2022-10-28T01:25:49.337Z,99676.13
2022-10-28T01:28:53.221Z,99682.72
2022-10-28T01:31:26.380Z,99677.34
2022-10-28T01:34:29.547Z,99669.06
2022-10-28T01:37:25.625Z,99672.38
2022-10-28T01:40:16.119Z,99673.41
2022-10-28T01:42:53.439Z,99673.78
2022-10-28T01:45:34.545Z,99656.47
2022-10-28T01:48:05.386Z,99663.06
2022-10-28T01:50:48.101Z,99662.84
2022-10-28T01:53:19.431Z,99651.66
2022-10-28T01:55:50.179Z,99675.22
2022-10-28T01:58:21.871Z,99657.25
2022-10-28T02:00:50.111Z,99665.31
2022-10-28T02:03:17.622Z,99666.72
2022-10-28T02:05:50.017Z,99675.38
2022-10-28T02:08:23.346Z,99665.69
2022-10-28T02:11:11.901Z,99667.75
2022-10-28T02:13:57.360Z,99667.75
2022-10-28T02:16:24.205Z,99668.78
2022-10-28T02:19:05.116Z,99665.88
2022-10-28T02:21:44.745Z,99652.47
2022-10-28T02:24:21.019Z,99669.41
2022-10-28T02:26:56.350Z,99664.84
2022-10-28T02:29:31.252Z,99664.03
2022-10-28T02:32:07.441Z,99669.63
2022-10-28T02:34:39.268Z,99674.38
2022-10-28T02:37:13.446Z,99643.44
2022-10-28T02:39:44.657Z,99673.06
2022-10-28T02:42:21.851Z,99649.34
2022-10-28T02:44:54.396Z,99655.69
2022-10-28T02:47:26.768Z,99659.19
2022-10-28T02:49:59.299Z,99674.22
2022-10-28T02:52:30.032Z,99667.44
2022-10-28T02:55:06.757Z,99667.59
2022-10-28T02:57:36.418Z,99669.72
2022-10-28T03:00:09.850Z,99674.66
2022-10-28T03:02:37.636Z,99671.38
2022-10-28T03:05:06.424Z,99678.22
2022-10-28T03:07:33.632Z,99685.25
2022-10-28T03:10:00.619Z,99687.97
2022-10-28T03:12:27.571Z,99679.66
2022-10-28T03:14:54.518Z,99678.38
2022-10-28T03:17:21.537Z,99674.88
2022-10-28T03:19:48.481Z,99658.00
2022-10-28T03:22:15.517Z,99671.59
2022-10-28T03:24:42.473Z,99675.53
2022-10-28T03:27:34.146Z,99672.69
2022-10-28T03:30:01.211Z,99672.69
2022-10-28T03:32:28.134Z,99668.75
2022-10-28T03:34:57.437Z,99664.41
2022-10-28T03:37:24.301Z,99669.84
2022-10-28T03:39:51.330Z,99665.88
2022-10-28T03:42:18.311Z,99652.53
2022-10-28T03:44:45.225Z,99659.53
2022-10-28T03:47:12.174Z,99666.78
2022-10-28T03:49:39.097Z,99675.31
2022-10-28T03:52:05.977Z,99669.06
2022-10-28T03:54:32.866Z,99666.81
2022-10-28T03:56:59.768Z,99652.75
2022-10-28T03:59:26.804Z,99660.19
2022-10-28T04:01:53.805Z,99656.84
2022-10-28T04:04:20.918Z,99647.38
2022-10-28T04:06:47.926Z,99643.59
2022-10-28T04:09:14.961Z,99651.03
2022-10-28T04:11:41.965Z,99647.09
2022-10-28T04:14:08.891Z,99636.13
2022-10-28T04:16:35.750Z,99647.69
2022-10-28T04:19:04.570Z,99659.03
2022-10-28T04:21:31.449Z,99631.44
2022-10-28T04:23:58.614Z,99654.06
2022-10-28T04:26:25.622Z,99628.66
2022-10-28T04:28:52.482Z,99638.75
2022-10-28T04:31:19.346Z,99637.72
2022-10-28T04:33:46.333Z,99645.13
2022-10-28T04:36:13.313Z,99635.41
2022-10-28T04:38:40.260Z,99643.25
2022-10-28T04:41:07.240Z,99637.44
2022-10-28T04:43:34.215Z,99624.22
2022-10-28T04:46:06.096Z,99641.09
2022-10-28T04:48:51.474Z,99641.94
2022-10-28T04:51:20.110Z,99643.56
2022-10-28T04:53:47.078Z,99646.06
2022-10-28T04:56:16.400Z,99655.34
2022-10-28T04:58:43.447Z,99649.97
2022-10-28T05:01:11.221Z,99643.56
2022-10-28T05:03:38.357Z,99658.84
2022-10-28T05:06:05.456Z,99658.03
2022-10-28T05:08:32.503Z,99638.16
2022-10-28T05:10:59.525Z,99637.28
2022-10-28T05:13:26.528Z,99641.63
2022-10-28T05:15:53.587Z,99631.69
2022-10-28T05:18:20.506Z,99636.56
2022-10-28T05:20:47.516Z,99635.28
2022-10-28T05:23:14.425Z,99640.25
2022-10-28T05:25:42.916Z,99643.34
2022-10-28T05:28:09.868Z,99646.63
2022-10-28T05:30:45.883Z,99656.97
2022-10-28T05:33:15.981Z,99646.44
2022-10-28T05:35:43.688Z,99649.31
2022-10-28T05:38:10.666Z,99649.97
2022-10-28T05:40:37.600Z,99661.34
2022-10-28T05:43:06.516Z,99661.91
2022-10-28T05:45:33.939Z,99648.25
2022-10-28T05:48:00.984Z,99651.31
2022-10-28T05:50:28.653Z,99656.47
2022-10-28T05:52:57.261Z,99656.69
2022-10-28T05:55:27.951Z,99670.28
2022-10-28T05:57:56.006Z,99659.09
2022-10-28T06:00:25.537Z,99643.41
2022-10-28T06:02:53.028Z,99643.56
2022-10-28T06:05:20.885Z,99649.31
2022-10-28T06:07:47.913Z,99652.16
2022-10-28T06:10:15.687Z,99655.84
2022-10-28T06:12:41.231Z,99645.81
2022-10-28T06:15:23.873Z,99663.66
2022-10-28T06:18:02.006Z,99668.19
2022-10-28T06:20:29.167Z,99641.03
2022-10-28T06:22:56.416Z,99612.41
2022-10-28T06:25:25.858Z,99634.25
2022-10-28T06:27:55.078Z,99627.66
2022-10-28T06:30:24.163Z,99660.84
2022-10-28T06:32:51.336Z,99656.28
2022-10-28T06:35:18.427Z,99659.16
2022-10-28T06:37:45.505Z,99647.38
2022-10-28T06:40:12.486Z,99656.28
2022-10-28T06:42:39.537Z,99663.75
2022-10-28T06:45:06.815Z,99651.00
2022-10-28T06:47:39.073Z,99641.00
2022-10-28T06:50:08.895Z,99623.97
2022-10-28T06:52:38.744Z,99637.97
2022-10-28T06:55:06.501Z,99628.16
2022-10-28T06:57:33.602Z,99633.69
2022-10-28T07:00:00.654Z,99624.56
2022-10-28T07:02:27.606Z,99633.59
2022-10-28T07:04:54.538Z,99631.72
2022-10-28T07:07:21.691Z,99628.34
2022-10-28T07:09:48.861Z,99637.06
2022-10-28T07:12:16.076Z,99617.97
2022-10-28T07:14:43.812Z,99613.22
2022-10-28T07:17:11.121Z,99620.72
2022-10-28T07:19:38.369Z,99611.84
2022-10-28T07:22:05.700Z,99612.09
2022-10-28T07:24:33.107Z,99611.28
2022-10-28T07:27:00.668Z,99617.59
2022-10-28T07:29:27.899Z,99608.91
2022-10-28T07:31:57.559Z,99628.88
2022-10-28T07:34:27.160Z,99621.59
2022-10-28T07:36:56.806Z,99611.25
2022-10-28T07:39:24.815Z,99621.47
2022-10-28T07:41:51.967Z,99615.28
2022-10-28T07:44:19.461Z,99602.50
2022-10-28T07:46:47.558Z,99586.16
2022-10-28T07:49:15.087Z,99600.84
2022-10-28T07:51:42.058Z,99619.84
2022-10-28T07:54:09.222Z,99628.97
2022-10-28T07:56:36.176Z,99624.00
2022-10-28T07:59:03.217Z,99623.88
2022-10-28T08:01:30.568Z,99625.50
2022-10-28T08:03:57.687Z,99620.19
2022-10-28T08:06:24.629Z,99624.06
2022-10-28T08:08:55.043Z,99621.59
2022-10-28T08:11:23.919Z,99635.19
2022-10-28T08:13:52.046Z,99634.94
2022-10-28T08:16:19.861Z,99626.03
2022-10-28T08:18:46.937Z,99613.00
2022-10-28T08:21:18.669Z,99629.53
2022-10-28T08:23:47.207Z,99628.72
2022-10-28T08:26:15.902Z,99620.63
2022-10-28T08:28:43.527Z,99629.63
2022-10-28T08:31:12.537Z,99623.47
2022-10-28T08:33:45.539Z,99607.19
2022-10-28T08:36:14.711Z,99606.69
2022-10-28T08:38:45.736Z,99635.84
2022-10-28T08:41:36.327Z,99619.31
2022-10-28T08:44:18.953Z,99624.19
2022-10-28T08:47:03.198Z,99624.53
2022-10-28T08:49:34.038Z,99620.81
2022-10-28T08:52:38.991Z,99610.50
2022-10-28T08:55:19.157Z,99612.56
2022-10-28T08:58:14.106Z,99602.50
2022-10-28T09:00:47.315Z,99613.06
2022-10-28T09:03:28.507Z,99598.56
2022-10-28T09:06:07.703Z,99603.16
2022-10-28T09:08:39.367Z,99594.31
2022-10-28T09:11:34.295Z,99599.88
2022-10-28T09:14:24.362Z,99595.91
2022-10-28T09:17:09.368Z,99601.66
2022-10-28T09:19:48.405Z,99594.03
2022-10-28T09:22:29.766Z,99585.41
2022-10-28T09:25:34.554Z,99590.69
2022-10-28T09:28:16.682Z,99581.81
2022-10-28T09:30:46.461Z,99580.16
2022-10-28T09:33:35.705Z,99572.97
2022-10-28T09:36:06.310Z,99581.78
2022-10-28T09:38:35.909Z,99576.72
2022-10-28T09:41:02.845Z,99567.63
2022-10-28T09:43:43.043Z,99583.66
2022-10-28T09:46:15.944Z,99572.31
2022-10-28T09:48:55.816Z,99553.97
2022-10-28T09:51:38.046Z,99565.94
2022-10-28T09:54:06.900Z,99563.78
2022-10-28T09:56:33.840Z,99563.72
2022-10-28T09:59:03.231Z,99549.53
2022-10-28T10:01:38.201Z,99550.28
2022-10-28T10:04:26.247Z,99561.53
2022-10-28T10:06:57.943Z,99562.06
2022-10-28T10:09:30.723Z,99554.63
2022-10-28T10:12:10.949Z,99562.94
2022-10-28T10:14:56.610Z,99537.78
2022-10-28T10:17:29.908Z,99548.66
2022-10-28T10:20:16.489Z,99535.47
2022-10-28T10:22:45.494Z,99546.63
2022-10-28T10:25:18.779Z,99536.44
2022-10-28T10:27:57.858Z,99544.63
2022-10-28T10:30:39.347Z,99545.44
2022-10-28T10:33:24.139Z,99517.84
2022-10-28T10:36:21.243Z,99521.72
2022-10-28T10:38:54.552Z,99516.56
2022-10-28T10:41:42.934Z,99522.31
2022-10-28T10:44:22.232Z,99516.41
2022-10-28T10:46:55.431Z,99527.00
2022-10-28T10:49:26.281Z,99529.38
2022-10-28T10:51:57.327Z,99528.56
2022-10-28T10:54:30.607Z,99527.19
2022-10-28T10:57:20.047Z,99528.25
2022-10-28T10:59:51.631Z,99491.72
2022-10-28T11:02:30.449Z,99473.25
2022-10-28T11:05:03.850Z,99496.41
2022-10-28T11:07:32.999Z,99505.41
2022-10-28T11:10:01.217Z,99501.06
2022-10-28T11:12:40.670Z,99506.28
2022-10-28T11:15:19.487Z,99500.34
2022-10-28T11:18:20.960Z,99489.81
2022-10-28T11:20:54.660Z,99491.13
2022-10-28T11:23:30.953Z,99477.72
2022-10-28T11:26:06.138Z,99480.50
2022-10-28T11:29:08.867Z,99471.91
2022-10-28T11:31:46.439Z,99483.38
2022-10-28T11:34:57.784Z,99466.97
2022-10-28T11:37:33.918Z,99487.47
2022-10-28T11:40:06.981Z,99482.31
2022-10-28T11:43:21.761Z,99472.25
2022-10-28T11:46:05.717Z,99481.19
2022-10-28T11:48:41.866Z,99486.16
2022-10-28T11:51:31.306Z,99481.56
2022-10-28T11:54:05.278Z,99479.34
2022-10-28T11:56:40.125Z,99476.34
2022-10-28T11:59:24.058Z,99472.25
2022-10-28T12:02:01.277Z,99472.53
2022-10-28T12:04:37.137Z,99468.38
2022-10-28T12:07:32.122Z,99466.44
2022-10-28T12:10:51.846Z,99456.13
2022-10-28T12:13:37.272Z,99456.66
2022-10-28T12:16:20.743Z,99463.66
2022-10-28T12:19:18.562Z,99434.22
2022-10-28T12:22:02.845Z,99460.66
2022-10-28T12:24:35.171Z,99449.59
2022-10-28T12:27:17.005Z,99454.84
2022-10-28T12:29:50.164Z,99459.44
2022-10-28T12:32:29.864Z,99436.63
2022-10-28T12:35:06.719Z,99467.91
2022-10-28T12:37:48.536Z,99443.94
2022-10-28T12:40:49.518Z,99442.63
2022-10-28T12:43:27.272Z,99450.72
2022-10-28T12:45:56.550Z,99453.44
2022-10-28T12:48:39.635Z,99445.56
2022-10-28T12:51:35.953Z,99447.91
2022-10-28T12:54:16.561Z,99462.31
2022-10-28T12:56:53.257Z,99450.41
2022-10-28T12:59:44.301Z,99469.13
2022-10-28T13:02:20.289Z,99450.09
2022-10-28T13:04:47.870Z,99434.94
2022-10-28T13:07:44.284Z,99448.00
2022-10-28T13:10:37.082Z,99447.19
2022-10-28T13:13:38.350Z,99442.59
2022-10-28T13:16:20.125Z,99437.13
2022-10-28T13:19:21.339Z,99435.75
2022-10-28T13:22:16.367Z,99437.09
2022-10-28T13:24:46.172Z,99428.91
2022-10-28T13:27:14.729Z,99426.63
2022-10-28T13:29:44.148Z,99430.16
2022-10-28T13:32:41.251Z,99430.72
2022-10-28T13:35:16.441Z,99438.28
2022-10-28T13:37:47.706Z,99426.03
2022-10-28T13:40:28.688Z,99437.66
2022-10-28T13:42:56.170Z,99437.91
2022-10-28T13:45:52.330Z,99436.84
2022-10-28T13:49:17.818Z,99431.94
2022-10-28T13:51:46.891Z,99424.16
2022-10-28T13:54:52.839Z,99431.06
2022-10-28T13:57:29.057Z,99431.34
2022-10-28T14:00:01.532Z,99422.84
2022-10-28T14:02:46.265Z,99427.25
2022-10-28T14:05:16.037Z,99426.44
2022-10-28T14:08:07.401Z,99407.66
2022-10-28T14:10:38.383Z,99421.78
2022-10-28T14:15:49.913Z,99406.03
2022-10-28T14:18:42.458Z,99410.06
2022-10-28T14:21:06.909Z,99414.13
2022-10-28T14:23:33.805Z,99406.28
2022-10-28T14:26:05.974Z,99413.84
2022-10-28T14:28:32.842Z,99412.75
2022-10-28T14:31:11.952Z,99420.88
2022-10-28T14:33:41.989Z,99413.84
2022-10-28T14:36:21.875Z,99403.78
2022-10-28T14:39:14.070Z,99404.03
2022-10-28T14:41:40.981Z,99413.72
2022-10-28T14:44:17.433Z,99405.28
2022-10-28T14:47:07.055Z,99423.41
2022-10-28T14:49:37.043Z,99410.25
2022-10-28T14:52:13.554Z,99396.31
2022-10-28T14:54:56.074Z,99413.03
2022-10-28T14:57:33.913Z,99412.94
2022-10-28T15:00:06.915Z,99406.16
2022-10-28T15:02:37.896Z,99402.38
2022-10-28T15:05:14.127Z,99409.09
2022-10-28T15:07:42.113Z,99402.88
2022-10-28T15:10:22.359Z,99390.19
2022-10-28T15:12:50.522Z,99396.91
2022-10-28T15:15:32.396Z,99406.91
2022-10-28T15:18:00.520Z,99410.69
2022-10-28T15:20:33.915Z,99399.03
2022-10-28T15:23:23.825Z,99406.59
2022-10-28T15:26:07.588Z,99401.44
2022-10-28T15:28:34.778Z,99391.44
2022-10-28T15:31:04.601Z,99401.44
2022-10-28T15:33:42.430Z,99384.97
2022-10-28T15:36:17.533Z,99388.16
2022-10-28T15:38:48.600Z,99392.75
2022-10-28T15:41:21.832Z,99366.78
2022-10-28T15:44:00.363Z,99365.72
2022-10-28T15:46:28.748Z,99366.97
2022-10-28T15:49:00.656Z,99362.97
2022-10-28T15:51:28.346Z,99380.50
2022-10-28T15:54:10.537Z,99378.03
2022-10-28T15:56:58.050Z,99366.97
2022-10-28T15:59:25.894Z,99357.66
2022-10-28T16:01:56.399Z,99362.31
2022-10-28T16:04:23.408Z,99368.88
2022-10-28T16:06:56.888Z,99349.59
2022-10-28T16:09:26.874Z,99354.19
2022-10-28T16:11:57.720Z,99375.91
2022-10-28T16:14:44.144Z,99383.19
2022-10-28T16:17:19.244Z,99385.09
2022-10-28T16:20:17.082Z,99381.06
2022-10-28T16:22:46.670Z,99381.56
2022-10-28T16:25:16.502Z,99382.94
2022-10-28T16:27:43.721Z,99375.34
2022-10-28T16:30:11.360Z,99377.22
2022-10-28T16:32:41.010Z,99376.78
2022-10-28T16:35:18.465Z,99361.13
2022-10-28T16:37:49.363Z,99365.47
2022-10-28T16:43:05.221Z,99371.13
2022-10-28T16:45:32.206Z,99363.06
2022-10-28T16:47:59.213Z,99355.72
2022-10-28T16:50:26.447Z,99354.66
2022-10-28T16:52:56.262Z,99358.50
2022-10-28T16:55:23.491Z,99340.06
2022-10-28T16:57:50.608Z,99352.00
2022-10-28T17:00:18.221Z,99346.66
2022-10-28T17:02:46.992Z,99339.06
2022-10-28T17:05:19.976Z,99346.09
2022-10-28T17:07:47.267Z,99355.09
2022-10-28T17:10:15.376Z,99327.06
2022-10-28T17:12:42.477Z,99325.41
2022-10-28T17:15:13.185Z,99342.31
2022-10-28T17:17:40.514Z,99336.41
2022-10-28T17:20:08.218Z,99328.53
2022-10-28T17:22:35.432Z,99328.28
2022-10-28T17:25:02.568Z,99302.97
2022-10-28T17:27:29.863Z,99342.47
2022-10-28T17:29:57.127Z,99333.03
2022-10-28T17:32:24.638Z,99335.72
2022-10-28T17:34:51.923Z,99315.59
2022-10-28T17:37:19.113Z,99314.84
2022-10-28T17:39:46.423Z,99302.06
2022-10-28T17:42:13.642Z,99302.16
2022-10-28T17:44:40.759Z,99319.81
2022-10-28T17:47:07.675Z,99314.91
2022-10-28T17:49:36.611Z,99299.81
2022-10-28T17:52:03.718Z,99318.69
2022-10-28T17:54:30.741Z,99315.47
2022-10-28T17:56:57.772Z,99327.09
2022-10-28T17:59:24.839Z,99317.56
2022-10-28T18:01:51.933Z,99309.25
2022-10-28T18:04:20.319Z,99320.06
2022-10-28T18:06:47.420Z,99302.97
2022-10-28T18:09:14.736Z,99310.06
2022-10-28T18:11:44.561Z,99303.03
2022-10-28T18:14:11.600Z,99309.75
2022-10-28T18:16:38.545Z,99303.53
2022-10-28T18:19:07.007Z,99305.41
2022-10-28T18:21:34.727Z,99309.56
2022-10-28T18:24:05.377Z,99303.03
2022-10-28T18:26:34.206Z,99306.03
2022-10-28T18:29:04.227Z,99292.72
2022-10-28T18:31:34.754Z,99295.41
2022-10-28T18:34:02.183Z,99307.91
2022-10-28T18:36:34.563Z,99292.97
2022-10-28T18:39:04.084Z,99313.59
2022-10-28T18:41:32.244Z,99296.97
2022-10-28T18:44:01.433Z,99301.13
2022-10-28T18:46:29.616Z,99295.22
2022-10-28T18:51:28.212Z,99291.38
2022-10-28T18:53:56.720Z,99289.75
2022-10-28T18:56:27.202Z,99303.06
2022-10-28T18:58:55.322Z,99287.91
2022-10-28T19:01:25.920Z,99304.44
2022-10-28T19:03:55.403Z,99298.78
2022-10-28T19:06:22.890Z,99301.44
2022-10-28T19:08:55.064Z,99297.41
2022-10-28T19:11:25.799Z,99289.81
2022-10-28T19:13:52.925Z,99290.69
2022-10-28T19:16:19.954Z,99306.06
2022-10-28T19:18:46.934Z,99274.28
2022-10-28T19:21:15.782Z,99287.41
2022-10-28T19:23:44.292Z,99289.84
2022-10-28T19:26:16.289Z,99298.53
2022-10-28T19:28:49.051Z,99287.09
2022-10-28T19:31:24.155Z,99274.59
2022-10-28T19:33:55.225Z,99258.06
2022-10-28T19:36:47.720Z,99287.13
2022-10-28T19:39:14.844Z,99254.03
2022-10-28T19:41:43.494Z,99276.06
2022-10-28T19:44:10.817Z,99260.03
2022-10-28T19:46:47.902Z,99261.41
2022-10-28T19:49:15.570Z,99273.41
2022-10-28T19:51:42.729Z,99252.19
2022-10-28T19:54:13.727Z,99275.59
2022-10-28T19:56:52.668Z,99268.50
2022-10-28T19:59:21.311Z,99275.91
2022-10-28T20:01:50.186Z,99284.59
2022-10-28T20:04:25.320Z,99255.28
2022-10-28T20:06:53.084Z,99250.66
2022-10-28T20:09:35.006Z,99272.06
2022-10-28T20:12:03.959Z,99265.53
2022-10-28T20:14:32.718Z,99269.88
2022-10-28T20:17:10.380Z,99253.66
2022-10-28T20:19:45.803Z,99252.28
2022-10-28T20:22:13.120Z,99245.78
2022-10-28T20:24:40.457Z,99276.81
2022-10-28T20:27:08.895Z,99258.09
2022-10-28T20:29:36.434Z,99258.16
2022-10-28T20:32:04.197Z,99252.22
2022-10-28T20:34:31.440Z,99239.16
2022-10-28T20:36:58.596Z,99223.88
2022-10-28T20:39:26.434Z,99224.44
2022-10-28T20:42:05.476Z,99223.44
2022-10-28T20:44:33.185Z,99212.56
2022-10-28T20:47:00.407Z,99209.28
2022-10-28T20:49:37.344Z,99231.63
2022-10-28T20:52:07.837Z,99206.69
2022-10-28T20:54:34.975Z,99204.28
2022-10-28T20:57:02.105Z,99203.75
2022-10-28T20:59:29.350Z,99192.09
2022-10-28T21:01:56.834Z,99179.63
2022-10-28T21:04:24.233Z,99194.53
2022-10-28T21:06:51.399Z,99191.78
2022-10-28T21:09:20.718Z,99209.19
2022-10-28T21:11:47.810Z,99210.25
2022-10-28T21:14:14.968Z,99189.97
2022-10-28T21:16:42.030Z,99208.16
2022-10-28T21:19:08.954Z,99205.47
2022-10-28T21:21:35.869Z,99221.97
2022-10-28T21:24:03.857Z,99208.41
2022-10-28T21:26:30.785Z,99209.50
2022-10-28T21:28:57.739Z,99204.34
2022-10-28T21:31:25.337Z,99205.16
2022-10-28T21:33:53.523Z,99205.16
2022-10-28T21:36:22.433Z,99182.63
2022-10-28T21:38:53.404Z,99208.13
2022-10-28T21:41:20.967Z,99191.06
2022-10-28T21:43:50.383Z,99196.75
2022-10-28T21:46:19.141Z,99191.88
2022-10-28T21:48:46.105Z,99187.81
2022-10-28T21:51:15.379Z,99185.66
2022-10-28T21:53:44.255Z,99179.16
2022-10-28T21:56:17.508Z,99179.19
2022-10-28T21:58:47.086Z,99177.03
2022-10-28T22:01:22.585Z,99189.22
2022-10-28T22:03:51.418Z,99169.16
2022-10-28T22:06:18.458Z,99184.63
2022-10-28T22:08:45.450Z,99165.31
2022-10-28T22:11:19.023Z,99172.97
2022-10-28T22:13:46.338Z,99193.81
2022-10-28T22:16:16.517Z,99184.59
2022-10-28T22:18:44.311Z,99181.63
2022-10-28T22:21:14.393Z,99174.03
2022-10-28T22:23:41.839Z,99175.13
2022-10-28T22:26:11.786Z,99171.34
2022-10-28T22:28:39.163Z,99157.00
2022-10-28T22:31:08.529Z,99176.78
2022-10-28T22:33:36.216Z,99165.72
2022-10-28T22:36:14.862Z,99178.97
2022-10-28T22:38:42.371Z,99173.78
2022-10-28T22:41:24.404Z,99154.06
2022-10-28T22:43:53.958Z,99151.88
2022-10-28T22:46:21.980Z,99154.06
2022-10-28T22:48:49.601Z,99142.69
2022-10-28T22:51:17.140Z,99131.84
2022-10-28T22:53:44.778Z,99137.81
2022-10-28T22:56:17.665Z,99142.16
2022-10-28T22:58:44.751Z,99142.16
2022-10-28T23:01:14.728Z,99136.75
2022-10-28T23:03:44.540Z,99134.81
2022-10-28T23:06:13.367Z,99133.19
2022-10-28T23:08:42.199Z,99128.34
2022-10-28T23:11:13.807Z,99130.53
2022-10-28T23:13:40.935Z,99121.81
2022-10-28T23:16:11.754Z,99124.28
2022-10-28T23:18:39.230Z,99126.72
2022-10-28T23:21:25.463Z,99119.44
2022-10-28T23:23:56.963Z,99117.78
2022-10-28T23:26:24.532Z,99124.03
2022-10-28T23:28:53.827Z,99126.50
2022-10-28T23:31:21.829Z,99117.56
2022-10-28T23:33:49.230Z,99118.63
2022-10-28T23:36:16.797Z,99148.72
2022-10-28T23:38:43.884Z,99132.16
2022-10-28T23:41:14.559Z,99125.09
2022-10-28T23:43:42.908Z,99122.41
2022-10-28T23:46:10.748Z,99125.38
2022-10-28T23:48:37.992Z,99145.94
2022-10-28T23:51:06.245Z,99117.78
2022-10-28T23:53:33.171Z,99113.44
2022-10-28T23:56:00.175Z,99119.94
2022-10-28T23:58:27.273Z,99131.03
